Time;durP1;ratioP1;P1;durP2;ratioP2;P2;SDS_P1;SDS_P2;PMS_P1;PMS_P2;Temp;Humidity;BMP_temperature;BMP_pressure;BME280_temperature;BME280_humidity;BME280_pressure;Samples;Min_cycle;Max_cycle;Signal;HPM_P1;HPM_P2
2022/04/11 00:01:31;;;;;;;12.43;4.85;;;;;;;4.57;98.11;100450.94;5093694;28;20035;-60
2022/04/11 00:03:56;;;;;;;6.82;5.10;;;;;;;4.56;98.40;100447.44;5093082;28;20080;-60
2022/04/11 00:06:22;;;;;;;8.85;5.47;;;;;;;4.55;98.35;100440.41;5092049;28;20035;-60
2022/04/11 00:08:48;;;;;;;11.57;6.45;;;;;;;4.47;98.92;100425.50;5091399;28;20433;-60
2022/04/11 00:11:13;;;;;;;10.13;5.68;;;;;;;4.52;99.57;100439.53;5091435;28;20351;-60
2022/04/11 00:13:39;;;;;;;10.48;6.72;;;;;;;4.52;99.45;100437.78;5090861;28;20027;-60
2022/04/11 00:16:07;;;;;;;10.25;6.10;;;;;;;4.58;99.83;100439.53;5090888;28;20023;-60
2022/04/11 00:18:33;;;;;;;9.63;5.82;;;;;;;4.64;99.66;100427.22;5087683;28;20035;-60
2022/04/11 00:20:59;;;;;;;14.40;6.22;;;;;;;4.56;99.87;100434.28;5085300;28;20052;-60
2022/04/11 00:23:24;;;;;;;11.60;6.22;;;;;;;4.54;100.00;100436.03;5091955;28;20483;-60
2022/04/11 00:25:50;;;;;;;10.00;6.85;;;;;;;4.59;100.00;100433.38;5093063;28;20070;-60
2022/04/11 00:28:15;;;;;;;9.02;5.00;;;;;;;4.66;100.00;100427.22;5093111;28;20035;-60
2022/04/11 00:30:41;;;;;;;10.02;5.68;;;;;;;4.58;100.00;100426.38;5093037;28;20024;-60
2022/04/11 00:33:06;;;;;;;7.78;5.50;;;;;;;4.50;100.00;100426.38;5093334;28;20020;-60
2022/04/11 00:35:32;;;;;;;8.98;6.10;;;;;;;4.48;100.00;100422.84;5093421;28;20081;-60
2022/04/11 00:37:57;;;;;;;7.22;4.88;;;;;;;4.51;100.00;100424.63;5089246;28;20035;-60
2022/04/11 00:40:22;;;;;;;10.50;5.47;;;;;;;4.50;99.85;100414.97;5092748;28;20031;-60
2022/04/11 00:42:49;;;;;;;9.00;5.05;;;;;;;4.35;99.87;100401.84;5092774;28;20107;-60
2022/04/11 00:45:15;;;;;;;9.20;5.25;;;;;;;4.38;100.00;100404.44;5092593;28;20032;-60
2022/04/11 00:47:41;;;;;;;8.32;4.90;;;;;;;4.29;100.00;100413.25;5083461;28;20039;-60
2022/04/11 00:50:11;;;;;;;7.03;4.68;;;;;;;4.21;100.00;100417.63;5072811;28;20024;-60
2022/04/11 00:52:44;;;;;;;7.45;4.95;;;;;;;4.22;100.00;100419.38;5075048;28;20031;-60
2022/04/11 00:55:09;;;;;;;9.65;5.22;;;;;;;4.26;100.00;100418.50;5072197;28;20088;-60
2022/04/11 00:57:35;;;;;;;7.15;4.68;;;;;;;4.26;100.00;100418.50;5071354;28;20428;-60
2022/04/11 01:00:04;;;;;;;8.32;5.00;;;;;;;4.28;100.00;100410.59;5054348;28;20035;-60
2022/04/11 01:02:29;;;;;;;7.05;4.50;;;;;;;4.23;100.00;100405.34;5052188;28;20025;-60
2022/04/11 01:04:55;;;;;;;7.20;5.13;;;;;;;4.27;100.00;100393.94;5052310;28;20514;-60
2022/04/11 01:07:20;;;;;;;9.30;5.40;;;;;;;4.23;100.00;100396.56;5052449;28;20083;-60
2022/04/11 01:09:46;;;;;;;11.07;5.78;;;;;;;4.26;100.00;100401.81;5052917;28;20036;-60
2022/04/11 01:12:15;;;;;;;7.25;5.45;;;;;;;4.24;100.00;100398.31;5052701;28;20056;-61
2022/04/11 01:14:40;;;;;;;7.45;5.28;;;;;;;4.22;100.00;100400.94;5051662;28;20032;-60
2022/04/11 01:17:06;;;;;;;10.32;5.93;;;;;;;4.22;100.00;100393.06;5056160;28;20472;-60
2022/04/11 01:19:31;;;;;;;9.13;5.68;;;;;;;4.30;100.00;100383.38;5072077;28;20086;-60
2022/04/11 01:21:57;;;;;;;9.68;6.25;;;;;;;4.34;100.00;100389.53;5092513;28;20088;-60
2022/04/11 01:24:23;;;;;;;8.27;5.88;;;;;;;4.35;100.00;100380.75;5092267;28;20097;-60
2022/04/11 01:26:50;;;;;;;7.15;5.45;;;;;;;4.36;100.00;100379.88;5092492;28;20040;-60
2022/04/11 01:29:19;;;;;;;11.02;6.20;;;;;;;4.45;100.00;100378.09;5092409;28;20119;-60
2022/04/11 01:31:45;;;;;;;9.40;6.18;;;;;;;4.51;100.00;100383.38;5092480;28;20027;-60
2022/04/11 01:34:10;;;;;;;9.52;6.25;;;;;;;4.51;100.00;100382.47;5091300;28;20486;-60
2022/04/11 01:36:36;;;;;;;11.68;6.20;;;;;;;4.41;100.00;100365.84;5091645;28;20020;-61
2022/04/11 01:39:02;;;;;;;13.15;6.45;;;;;;;4.51;100.00;100372.81;5090643;28;20088;-60
2022/04/11 01:41:28;;;;;;;10.32;6.43;;;;;;;4.61;100.00;100379.78;5078797;28;20028;-60
2022/04/11 01:43:53;;;;;;;9.98;6.97;;;;;;;4.66;100.00;100367.50;5073873;28;20074;-60
2022/04/11 01:46:19;;;;;;;8.93;6.53;;;;;;;4.65;100.00;100368.38;5074386;28;20095;-60
2022/04/11 01:48:45;;;;;;;9.65;6.28;;;;;;;4.69;100.00;100358.72;5071842;28;20028;-60
2022/04/11 01:51:12;;;;;;;7.07;5.68;;;;;;;4.66;100.00;100361.38;5071932;28;20375;-60
2022/04/11 01:53:37;;;;;;;8.00;6.03;;;;;;;4.61;100.00;100353.44;5069526;28;20605;-60
2022/04/11 01:56:03;;;;;;;11.57;6.55;;;;;;;4.61;100.00;100352.59;5073180;28;20016;-60
2022/04/11 01:58:29;;;;;;;10.32;6.82;;;;;;;4.64;100.00;100340.28;5071640;28;20066;-60
2022/04/11 02:00:55;;;;;;;10.02;6.55;;;;;;;4.73;100.00;100334.09;5071300;28;20118;-60
2022/04/11 02:03:20;;;;;;;10.52;6.35;;;;;;;4.73;100.00;100334.97;5071403;28;20020;-60
2022/04/11 02:05:46;;;;;;;9.93;6.20;;;;;;;4.77;100.00;100325.31;5071613;28;20074;-60
2022/04/11 02:08:11;;;;;;;11.10;6.70;;;;;;;4.83;100.00;100327.91;5071603;28;20526;-60
2022/04/11 02:10:38;;;;;;;9.90;5.78;;;;;;;4.83;100.00;100326.16;5071005;28;20109;-60
2022/04/11 02:13:04;;;;;;;9.88;6.70;;;;;;;4.93;100.00;100325.22;5070644;28;20467;-60
2022/04/11 02:15:30;;;;;;;10.63;6.28;;;;;;;4.92;100.00;100320.84;5071576;28;20052;-60
2022/04/11 02:17:55;;;;;;;8.63;5.80;;;;;;;4.96;100.00;100325.19;5082450;28;20035;-60
2022/04/11 02:20:21;;;;;;;10.80;5.80;;;;;;;4.94;100.00;100320.84;5090843;28;20028;-60
2022/04/11 02:22:55;;;;;;;9.48;6.05;;;;;;;4.73;100.00;100308.63;5091774;28;20498;-60
2022/04/11 02:25:21;;;;;;;;;;;;;;;4.64;100.00;100316.59;5092062;28;20106;-60
2022/04/11 02:27:48;;;;;;;9.30;5.95;;;;;;;4.60;100.00;100314.84;5090934;28;19920;-60
2022/04/11 02:30:15;;;;;;;8.80;5.70;;;;;;;4.58;100.00;100316.59;5090545;28;20024;-60
2022/04/11 02:32:41;;;;;;;8.27;5.45;;;;;;;4.61;100.00;100306.03;5091230;28;20480;-60
2022/04/11 02:35:08;;;;;;;9.98;5.43;;;;;;;4.55;100.00;100292.91;5091565;28;20103;-60
2022/04/11 02:37:33;;;;;;;9.32;5.55;;;;;;;4.65;100.00;100302.53;5091398;28;20024;-60
2022/04/11 02:40:00;;;;;;;9.13;6.35;;;;;;;4.70;100.00;100294.59;5091630;28;20028;-60
2022/04/11 02:42:27;;;;;;;10.23;5.78;;;;;;;4.76;100.00;100295.44;5091079;28;20034;-60
2022/04/11 02:44:53;;;;;;;8.80;5.60;;;;;;;4.77;100.00;100286.66;5090643;28;20028;-60
2022/04/11 02:47:19;;;;;;;8.98;5.72;;;;;;;4.79;100.00;100274.38;5090866;28;20024;-60
2022/04/11 02:49:44;;;;;;;8.05;5.95;;;;;;;4.77;100.00;100286.66;5088881;28;20020;-60
2022/04/11 02:52:10;;;;;;;7.78;5.30;;;;;;;4.82;100.00;100279.63;5071977;28;20497;-60
2022/04/11 02:54:37;;;;;;;13.07;5.85;;;;;;;4.77;100.00;100281.41;5074307;28;20170;-60
2022/04/11 02:57:03;;;;;;;6.68;4.93;;;;;;;4.88;100.00;100284.84;5075166;28;20043;-60
2022/04/11 02:59:28;;;;;;;6.82;4.82;;;;;;;4.87;100.00;100285.72;5074818;28;20032;-60
2022/04/11 03:01:54;;;;;;;9.23;5.72;;;;;;;4.87;100.00;100277.81;5074914;28;20024;-60
2022/04/11 03:04:20;;;;;;;8.05;5.28;;;;;;;4.87;100.00;100271.66;5073907;28;20078;-60
2022/04/11 03:06:46;;;;;;;8.82;5.50;;;;;;;4.85;100.00;100274.31;5074860;28;20028;-60
2022/04/11 03:09:11;;;;;;;14.20;6.35;;;;;;;4.86;100.00;100264.66;5074412;28;20029;-60
2022/04/11 03:11:37;;;;;;;8.95;5.30;;;;;;;4.85;100.00;100263.78;5074402;28;20825;-60
2022/04/11 03:14:02;;;;;;;9.93;5.57;;;;;;;4.87;100.00;100263.78;5074511;28;20472;-60
2022/04/11 03:16:28;;;;;;;10.55;5.13;;;;;;;4.84;100.00;100262.00;5074710;28;20056;-60
2022/04/11 03:18:53;;;;;;;7.55;4.90;;;;;;;4.82;100.00;100268.19;5094062;28;20081;-60
2022/04/11 03:21:19;;;;;;;6.25;4.53;;;;;;;4.74;100.00;100281.41;5094336;28;20463;-60
2022/04/11 03:23:44;;;;;;;7.53;5.45;;;;;;;4.74;100.00;100265.59;5094382;28;20040;-60
2022/04/11 03:26:10;;;;;;;7.78;4.75;;;;;;;4.63;100.00;100271.81;5094574;28;20020;-60
2022/04/11 03:28:35;;;;;;;8.70;4.88;;;;;;;4.56;100.00;100276.25;5092859;28;20038;-60
2022/04/11 03:31:01;;;;;;;7.75;5.40;;;;;;;4.52;100.00;100273.59;5093645;28;20107;-60
2022/04/11 03:33:26;;;;;;;10.00;5.00;;;;;;;4.47;100.00;100276.25;5094851;28;20028;-60
2022/04/11 03:35:52;;;;;;;9.07;4.97;;;;;;;4.45;100.00;100278.00;5094644;28;20058;-60
2022/04/11 03:38:17;;;;;;;10.05;5.18;;;;;;;4.43;100.00;100269.25;5094649;28;20103;-60
2022/04/11 03:40:43;;;;;;;7.80;4.72;;;;;;;4.44;100.00;100276.28;5093958;28;20675;-60
2022/04/11 03:43:09;;;;;;;9.73;4.95;;;;;;;4.40;100.00;100269.25;5094035;28;20032;-60
2022/04/11 03:45:34;;;;;;;7.63;5.20;;;;;;;4.44;100.00;100275.38;5084630;28;20023;-60
2022/04/11 03:48:00;;;;;;;6.97;4.82;;;;;;;4.43;100.00;100271.88;5085675;28;20028;-60
2022/04/11 03:50:25;;;;;;;11.10;4.85;;;;;;;4.32;100.00;100263.16;5081978;28;20032;-60
2022/04/11 03:52:50;;;;;;;6.65;4.25;;;;;;;4.26;100.00;100260.56;5076623;28;20480;-60
2022/04/11 03:55:16;;;;;;;8.10;4.82;;;;;;;4.29;100.00;100257.00;5073789;28;20031;-60
2022/04/11 03:57:41;;;;;;;9.10;5.22;;;;;;;4.24;100.00;100257.03;5073230;28;20044;-60
2022/04/11 04:00:07;;;;;;;11.80;5.60;;;;;;;4.18;100.00;100262.34;5073092;28;20028;-60
2022/04/11 04:02:33;;;;;;;9.43;5.30;;;;;;;4.19;100.00;100264.06;5071435;28;20025;-60
2022/04/11 04:04:58;;;;;;;7.68;5.07;;;;;;;4.16;100.00;100247.41;5078147;28;20494;-60
2022/04/11 04:07:24;;;;;;;12.40;5.18;;;;;;;4.17;100.00;100262.34;5094090;28;20433;-60
2022/04/11 04:09:49;;;;;;;7.78;5.15;;;;;;;4.14;100.00;100254.44;5093870;28;20020;-60
2022/04/11 04:12:22;;;;;;;10.35;5.72;;;;;;;4.11;100.00;100254.44;5093759;28;20024;-60
2022/04/11 04:14:48;;;;;;;10.97;5.40;;;;;;;4.10;100.00;100247.44;5093334;28;20089;-60
2022/04/11 04:17:14;;;;;;;8.15;5.70;;;;;;;4.03;100.00;100258.00;5093331;28;20636;-60
2022/04/11 04:19:40;;;;;;;9.13;5.57;;;;;;;4.07;100.00;100247.47;5093480;28;20034;-60
2022/04/11 04:22:05;;;;;;;11.90;6.32;;;;;;;4.06;100.00;100243.94;5093167;28;20032;-60
2022/04/11 04:24:32;;;;;;;9.10;6.45;;;;;;;4.11;100.00;100250.06;5093508;28;20027;-60
2022/04/11 04:26:57;;;;;;;7.63;5.40;;;;;;;4.09;100.00;100246.56;5093486;28;20074;-60
2022/04/11 04:29:23;;;;;;;9.93;6.03;;;;;;;4.05;100.00;100244.84;5093511;28;20047;-60
2022/04/11 04:31:49;;;;;;;10.55;6.22;;;;;;;4.07;100.00;100247.47;5092670;28;20065;-60
2022/04/11 04:34:15;;;;;;;12.15;6.28;;;;;;;4.04;100.00;100243.06;5093138;28;20069;-60
2022/04/11 04:36:41;;;;;;;8.60;6.43;;;;;;;3.94;100.00;100236.94;5092386;28;20464;-61
2022/04/11 04:39:06;;;;;;;10.75;6.45;;;;;;;3.96;100.00;100250.09;5093195;28;20365;-60
2022/04/11 04:41:32;;;;;;;9.75;6.28;;;;;;;3.93;100.00;100250.13;5092875;28;20035;-60
2022/04/11 04:43:57;;;;;;;11.38;6.60;;;;;;;3.91;100.00;100251.88;5093164;28;20047;-60
2022/04/11 04:46:22;;;;;;;8.88;6.13;;;;;;;3.90;100.00;100250.97;5093186;28;20537;-60
2022/04/11 04:48:48;;;;;;;13.52;7.05;;;;;;;3.89;100.00;100237.84;5089584;28;20139;-61
2022/04/11 04:51:14;;;;;;;10.85;6.50;;;;;;;3.89;100.00;100237.84;5092992;28;20485;-60
2022/04/11 04:53:40;;;;;;;9.30;6.25;;;;;;;3.92;100.00;100229.97;5092143;28;20058;-60
2022/04/11 04:56:05;;;;;;;22.73;11.40;;;;;;;3.88;100.00;100230.81;5092335;28;20391;-60
2022/04/11 04:58:31;;;;;;;29.63;14.88;;;;;;;3.90;100.00;100242.22;5093084;28;20038;-62
2022/04/11 05:00:56;;;;;;;44.47;17.20;;;;;;;3.92;100.00;100248.38;5092893;28;20098;-60
2022/04/11 05:03:22;;;;;;;65.30;26.70;;;;;;;3.95;100.00;100248.38;5093028;28;20028;-60
2022/04/11 05:05:47;;;;;;;64.68;26.30;;;;;;;3.99;100.00;100244.81;5092547;28;20070;-61
2022/04/11 05:08:13;;;;;;;51.78;24.23;;;;;;;4.02;100.00;100250.06;5092122;28;20024;-60
2022/04/11 05:10:38;;;;;;;28.58;13.77;;;;;;;3.93;100.00;100237.84;5092242;28;20051;-60
2022/04/11 05:13:03;;;;;;;18.52;10.25;;;;;;;4.02;100.00;100234.28;5092169;28;20659;-60
2022/04/11 05:15:29;;;;;;;17.10;9.18;;;;;;;4.02;100.00;100240.44;5091159;28;20020;-60
2022/04/11 05:17:55;;;;;;;10.70;6.65;;;;;;;4.09;100.00;100241.28;5073727;28;20038;-60
2022/04/11 05:20:21;;;;;;;13.77;7.35;;;;;;;4.07;100.00;100230.78;5092010;28;20545;-60
2022/04/11 05:22:46;;;;;;;14.45;7.28;;;;;;;4.24;100.00;100245.63;5092210;28;20475;-60
2022/04/11 05:25:12;;;;;;;42.85;9.75;;;;;;;4.52;100.00;100242.88;5091587;28;20024;-60
2022/04/11 05:27:37;;;;;;;13.43;6.60;;;;;;;5.16;100.00;100249.50;5091369;28;20036;-60
2022/04/11 05:30:05;;;;;;;15.95;6.30;;;;;;;6.25;100.00;100243.22;5091680;28;20098;-60
2022/04/11 05:32:34;;;;;;;10.05;6.38;;;;;;;7.53;100.00;100229.00;5074193;28;20130;-60
2022/04/11 05:35:00;;;;;;;11.45;6.13;;;;;;;9.02;89.91;100241.94;5091869;28;20459;-60
2022/04/11 05:37:25;;;;;;;9.15;6.82;;;;;;;10.25;80.58;100235.28;5092565;28;20043;-60
2022/04/11 05:39:51;;;;;;;10.35;5.35;;;;;;;11.15;70.56;100234.31;5092068;28;20031;-60
2022/04/11 05:42:16;;;;;;;9.48;6.28;;;;;;;10.97;66.31;100237.56;5080479;28;20438;-60
2022/04/11 05:44:42;;;;;;;8.32;5.25;;;;;;;10.35;63.55;100242.06;5071916;28;20024;-60
2022/04/11 05:47:08;;;;;;;11.95;8.35;;;;;;;9.83;66.06;100236.41;5089659;28;20136;-61
2022/04/11 05:49:33;;;;;;;8.88;5.78;;;;;;;10.04;64.83;100241.16;5089613;28;20031;-60
2022/04/11 05:51:59;;;;;;;7.28;5.32;;;;;;;9.81;65.22;100226.72;5088683;28;20024;-60
2022/04/11 05:54:24;;;;;;;7.15;4.40;;;;;;;9.44;66.01;100242.69;5088183;28;20016;-60
2022/04/11 05:56:50;;;;;;;8.70;5.03;;;;;;;9.25;68.04;100241.41;5089770;28;20032;-60
2022/04/11 05:59:16;;;;;;;10.80;6.55;;;;;;;9.76;67.09;100244.56;5081530;28;20028;-60
2022/04/11 06:01:41;;;;;;;8.02;5.50;;;;;;;10.18;67.20;100248.78;5070209;28;20099;-60
2022/04/11 06:04:07;;;;;;;8.10;5.75;;;;;;;11.65;61.87;100254.03;5069153;28;20047;-61
2022/04/11 06:06:32;;;;;;;7.28;5.03;;;;;;;13.28;56.96;100242.72;5070559;28;20024;-61
2022/04/11 06:08:58;;;;;;;10.48;5.07;;;;;;;14.84;52.50;100235.88;5069239;28;20336;-61
2022/04/11 06:11:23;;;;;;;9.02;5.03;;;;;;;15.54;49.02;100234.28;5069598;28;20663;-61
2022/04/11 06:13:49;;;;;;;8.18;5.03;;;;;;;15.61;47.55;100241.06;5069989;28;20538;-60
2022/04/11 06:16:14;;;;;;;8.80;4.63;;;;;;;15.28;47.49;100234.66;5071132;28;20436;-60
2022/04/11 06:18:40;;;;;;;7.47;4.90;;;;;;;14.33;47.76;100254.28;5090166;28;20479;-60
2022/04/11 06:21:06;;;;;;;7.03;4.60;;;;;;;13.90;50.20;100249.00;5088472;28;20044;-60
2022/04/11 06:23:31;;;;;;;7.30;4.85;;;;;;;13.66;50.66;100255.38;5090005;28;20043;-61
2022/04/11 06:25:57;;;;;;;7.32;4.45;;;;;;;13.33;50.88;100256.75;5089316;28;20643;-60
2022/04/11 06:28:23;;;;;;;5.85;3.97;;;;;;;13.61;50.44;100244.00;5095030;28;20051;-61
2022/04/11 06:30:48;;;;;;;6.93;4.30;;;;;;;14.56;49.80;100253.25;5095631;28;20038;-60
2022/04/11 06:33:14;;;;;;;7.63;4.78;;;;;;;15.35;47.38;100259.34;5096517;28;20027;-60
2022/04/11 06:35:39;;;;;;;8.38;4.72;;;;;;;15.55;46.64;100252.09;5096619;28;20031;-60
2022/04/11 06:38:05;;;;;;;6.97;5.00;;;;;;;15.94;46.43;100249.25;5096498;28;20020;-60
2022/04/11 06:40:31;;;;;;;7.35;5.07;;;;;;;16.14;45.53;100250.91;5095239;28;20024;-60
2022/04/11 06:42:56;;;;;;;8.02;4.97;;;;;;;15.62;47.28;100242.81;5096330;28;20045;-60
2022/04/11 06:45:22;;;;;;;7.13;4.40;;;;;;;15.47;47.11;100237.31;5095935;28;20020;-60
2022/04/11 06:47:48;;;;;;;6.05;4.32;;;;;;;14.86;47.39;100244.69;5089656;28;20099;-60
2022/04/11 06:50:14;;;;;;;10.25;4.70;;;;;;;14.86;48.81;100249.19;5095425;28;20053;-61
2022/04/11 06:52:40;;;;;;;7.05;4.45;;;;;;;15.97;47.86;100242.84;5095402;28;20039;-61
2022/04/11 06:55:06;;;;;;;7.43;4.40;;;;;;;17.20;44.06;100240.69;5094860;28;20035;-61
2022/04/11 06:57:31;;;;;;;6.40;4.32;;;;;;;18.19;41.97;100237.53;5095124;28;20028;-61
2022/04/11 06:59:57;;;;;;;10.50;5.15;;;;;;;18.50;41.38;100233.88;5096301;28;20016;-61
2022/04/11 07:02:22;;;;;;;7.78;4.38;;;;;;;17.89;41.04;100234.81;5095938;28;20073;-61
2022/04/11 07:04:48;;;;;;;6.43;4.30;;;;;;;18.05;42.64;100246.44;5096463;28;20075;-61
2022/04/11 07:07:13;;;;;;;11.43;4.43;;;;;;;17.62;42.40;100243.66;5096451;28;20111;-61
2022/04/11 07:09:39;;;;;;;6.53;3.92;;;;;;;17.37;42.65;100240.59;5096372;28;20035;-61
2022/04/11 07:12:05;;;;;;;8.63;4.70;;;;;;;17.22;44.33;100231.56;5095790;28;20103;-61
2022/04/11 07:14:30;;;;;;;6.88;4.40;;;;;;;17.20;44.44;100244.22;5094993;28;20020;-61
2022/04/11 07:16:56;;;;;;;6.40;4.47;;;;;;;17.17;44.13;100241.72;5089758;28;20036;-61
2022/04/11 07:19:21;;;;;;;6.05;4.32;;;;;;;17.11;43.55;100252.81;5081874;28;20025;-61
2022/04/11 07:21:47;;;;;;;6.43;4.28;;;;;;;17.23;43.77;100252.13;5088586;28;20058;-61
2022/04/11 07:24:13;;;;;;;6.10;3.80;;;;;;;17.36;44.56;100231.66;5093164;28;20024;-61
2022/04/11 07:26:40;;;;;;;6.18;4.10;;;;;;;17.53;42.82;100250.41;5079977;28;20031;-61
2022/04/11 07:29:06;;;;;;;8.57;4.15;;;;;;;17.43;43.56;100248.31;5086813;28;20103;-62
2022/04/11 07:31:32;;;;;;;5.95;3.63;;;;;;;17.29;43.03;100246.41;5095651;28;20031;-62
2022/04/11 07:33:57;;;;;;;8.10;4.10;;;;;;;17.20;43.00;100252.28;5079246;28;20032;-62
2022/04/11 07:36:23;;;;;;;6.82;4.30;;;;;;;17.44;43.80;100253.63;5075157;28;20173;-62
2022/04/11 07:38:48;;;;;;;6.40;4.13;;;;;;;17.50;43.82;100245.22;5077569;28;20138;-62
2022/04/11 07:41:14;;;;;;;8.32;4.95;;;;;;;17.52;44.51;100245.13;5082434;28;20396;-62
2022/04/11 07:43:39;;;;;;;7.78;4.40;;;;;;;17.59;43.82;100249.22;5073101;28;20029;-62
2022/04/11 07:46:05;;;;;;;8.25;3.88;;;;;;;17.60;44.20;100254.50;5073988;28;20070;-62
2022/04/11 07:48:32;;;;;;;8.40;4.38;;;;;;;17.41;44.18;100255.59;5092796;28;20039;-62
2022/04/11 07:50:57;;;;;;;6.97;4.30;;;;;;;17.73;44.16;100247.44;5087468;28;20055;-62
2022/04/11 07:53:22;;;;;;;6.65;4.07;;;;;;;17.59;42.83;100250.09;5098337;28;20194;-62
2022/04/11 07:55:48;;;;;;;6.55;4.10;;;;;;;17.63;43.89;100248.94;5073527;28;20036;-62
2022/04/11 07:58:15;;;;;;;5.22;3.38;;;;;;;17.88;42.63;100243.00;5083832;28;20699;-62
2022/04/11 08:00:41;;;;;;;5.82;3.83;;;;;;;18.29;42.46;100246.78;5074164;28;20021;-62
2022/04/11 08:03:07;;;;;;;7.38;4.57;;;;;;;18.19;42.65;100249.16;5072458;28;20038;-61
2022/04/11 08:05:32;;;;;;;7.03;3.60;;;;;;;18.13;42.24;100235.22;5075914;28;20390;-62
2022/04/11 08:07:59;;;;;;;5.10;3.38;;;;;;;18.53;42.59;100236.38;5091310;28;20028;-62
2022/04/11 08:10:25;;;;;;;6.15;3.67;;;;;;;18.62;41.65;100236.69;5090267;28;20096;-65
2022/04/11 08:12:56;;;;;;;8.25;4.28;;;;;;;19.17;42.08;100231.38;5088426;28;20024;-65
2022/04/11 08:15:22;;;;;;;6.22;3.85;;;;;;;19.32;40.53;100228.56;5089840;28;20024;-65
2022/04/11 08:17:48;;;;;;;7.00;3.72;;;;;;;19.64;39.75;100226.47;5086907;28;20077;-65
2022/04/11 08:20:14;;;;;;;7.35;3.92;;;;;;;19.67;38.67;100231.66;5093428;28;20466;-65
2022/04/11 08:22:40;;;;;;;6.75;3.53;;;;;;;20.06;39.46;100228.13;5093335;28;20035;-65
2022/04/11 08:25:06;;;;;;;5.65;3.28;;;;;;;20.40;37.57;100216.75;5091504;28;20028;-65
2022/04/11 08:27:31;;;;;;;6.53;3.38;;;;;;;20.46;39.75;100219.91;5092949;28;20031;-65
2022/04/11 08:29:57;;;;;;;4.70;3.35;;;;;;;20.33;38.34;100215.47;5091159;28;20538;-65
2022/04/11 08:32:22;;;;;;;6.07;3.53;;;;;;;20.53;38.55;100220.34;5091737;28;20142;-65
2022/04/11 08:34:47;;;;;;;6.40;3.97;;;;;;;20.25;40.70;100212.41;5092773;28;20458;-65
2022/04/11 08:37:13;;;;;;;6.30;3.72;;;;;;;20.22;40.80;100208.09;5092942;28;20024;-65
2022/04/11 08:39:38;;;;;;;5.53;3.33;;;;;;;20.43;40.52;100205.72;5093201;28;20027;-65
2022/04/11 08:42:04;;;;;;;5.72;3.00;;;;;;;20.42;39.52;100199.47;5093250;28;20103;-65
2022/04/11 08:44:32;;;;;;;6.20;3.70;;;;;;;20.66;39.39;100199.56;5090709;28;20409;-65
2022/04/11 08:47:04;;;;;;;6.13;3.65;;;;;;;21.03;38.00;100190.59;5091638;28;20471;-65
2022/04/11 08:49:31;;;;;;;5.72;2.97;;;;;;;21.08;38.17;100192.97;5091898;28;20028;-65
2022/04/11 08:51:57;;;;;;;6.10;3.30;;;;;;;21.47;37.81;100190.91;5090235;28;20394;-65
2022/04/11 08:54:22;;;;;;;5.22;3.20;;;;;;;21.40;37.17;100186.91;5092927;28;20114;-65
2022/04/11 08:56:48;;;;;;;5.13;3.00;;;;;;;21.52;38.27;100171.59;5092706;28;20095;-66
2022/04/11 08:59:14;;;;;;;4.00;2.63;;;;;;;21.68;37.93;100173.03;5092910;28;20150;-66
2022/04/11 09:01:40;;;;;;;6.65;3.00;;;;;;;21.82;37.81;100174.75;5093016;28;20073;-66
2022/04/11 09:04:08;;;;;;;6.47;3.03;;;;;;;22.37;34.81;100166.81;5092911;28;20036;-66
2022/04/11 09:06:35;;;;;;;6.18;2.88;;;;;;;22.38;36.43;100163.09;5092695;28;20372;-67
2022/04/11 09:09:02;;;;;;;5.43;3.05;;;;;;;22.54;35.65;100163.63;5092314;28;20024;-67
2022/04/11 09:11:36;;;;;;;4.28;2.38;;;;;;;21.91;37.02;100174.06;5091609;28;20630;-67
2022/04/11 09:14:04;;;;;;;3.92;2.40;;;;;;;22.10;35.22;100174.34;5091673;28;20512;-67
2022/04/11 09:16:51;;;;;;;6.45;2.75;;;;;;;22.14;37.23;100171.28;5092467;28;20350;-67
2022/04/11 09:19:24;;;;;;;5.70;2.75;;;;;;;22.02;34.99;100168.66;5072342;28;20029;-67
2022/04/11 09:21:54;;;;;;;4.57;2.20;;;;;;;22.20;36.07;100164.53;5072166;28;20487;-67
2022/04/11 09:24:22;;;;;;;4.05;2.58;;;;;;;22.17;35.24;100157.50;5071672;28;20035;-67
2022/04/11 09:26:50;;;;;;;5.03;2.88;;;;;;;22.46;36.94;100166.06;5072035;28;20552;-67
2022/04/11 09:29:15;;;;;;;7.57;3.08;;;;;;;22.28;36.44;100159.38;5071196;28;20021;-67
2022/04/11 09:31:41;;;;;;;6.80;2.90;;;;;;;22.70;36.50;100163.28;5072042;28;20036;-67
2022/04/11 09:34:18;;;;;;;7.43;3.55;;;;;;;22.78;35.92;100161.69;5071186;28;20036;-67
2022/04/11 09:36:52;;;;;;;4.97;2.55;;;;;;;22.85;36.29;100162.91;5071288;28;20115;-67
2022/04/11 09:39:25;;;;;;;5.95;2.50;;;;;;;22.98;34.42;100157.38;5072515;28;20024;-67
2022/04/11 09:41:52;;;;;;;4.72;2.50;;;;;;;23.08;37.28;100159.19;5072207;28;20028;-67
2022/04/11 09:44:26;;;;;;;4.32;2.50;;;;;;;23.08;35.43;100153.75;5071458;28;20020;-67
2022/04/11 09:46:53;;;;;;;6.53;2.65;;;;;;;22.98;35.57;100147.34;5076458;28;20039;-67
2022/04/11 09:49:19;;;;;;;4.03;2.30;;;;;;;23.23;34.74;100151.63;5086195;28;20066;-67
2022/04/11 09:52:12;;;;;;;6.80;2.00;;;;;;;23.42;32.95;100152.75;5074110;28;20032;-67
2022/04/11 09:54:42;;;;;;;3.88;2.10;;;;;;;23.34;34.27;100154.38;5071036;28;20017;-67
2022/04/11 09:57:09;;;;;;;4.82;2.40;;;;;;;23.43;33.09;100145.47;5071884;28;20036;-67
2022/04/11 09:59:36;;;;;;;3.33;1.92;;;;;;;23.50;33.47;100148.53;5070400;28;20056;-67
2022/04/11 10:02:03;;;;;;;3.28;1.92;;;;;;;23.78;33.02;100143.38;5070455;28;20519;-67
2022/04/11 10:04:29;;;;;;;6.13;2.45;;;;;;;24.23;33.08;100146.75;5070808;28;20031;-67
2022/04/11 10:06:55;;;;;;;5.43;2.40;;;;;;;24.18;33.58;100149.00;5071392;28;20017;-67
2022/04/11 10:09:23;;;;;;;4.50;1.83;;;;;;;23.64;31.64;100150.97;5071028;28;20034;-67
2022/04/11 10:11:52;;;;;;;6.45;2.20;;;;;;;23.33;35.44;100137.22;5071608;28;20078;-67
2022/04/11 10:14:28;;;;;;;5.00;2.08;;;;;;;23.42;33.36;100141.91;5071433;28;20049;-67
2022/04/11 10:16:56;;;;;;;4.63;1.90;;;;;;;23.52;33.35;100135.69;5074036;28;20024;-67
2022/04/11 10:19:25;;;;;;;4.13;1.67;;;;;;;23.46;33.16;100131.63;5091218;28;20122;-68
2022/04/11 10:21:54;;;;;;;4.07;3.33;;;;;;;23.44;31.77;100134.47;5091057;28;20119;-68
2022/04/11 10:24:38;;;;;;;6.50;2.45;;;;;;;23.59;32.35;100132.31;5091040;28;20027;-67
2022/04/11 10:27:23;;;;;;;3.95;1.88;;;;;;;23.74;32.37;100124.75;5091566;28;20024;-67
2022/04/11 10:29:50;;;;;;;3.58;1.42;;;;;;;23.67;32.35;100123.53;5091342;28;20024;-67
2022/04/11 10:32:22;;;;;;;2.47;1.60;;;;;;;23.61;31.15;100124.06;5077835;28;20028;-67
2022/04/11 10:34:51;;;;;;;2.50;1.45;;;;;;;24.04;32.41;100127.56;5071171;28;20028;-67
2022/04/11 10:37:18;;;;;;;4.68;1.80;;;;;;;24.19;32.96;100124.41;5084616;28;20051;-67
2022/04/11 10:39:45;;;;;;;4.10;1.60;;;;;;;24.58;29.60;100100.97;5090571;28;20095;-67
2022/04/11 10:42:16;;;;;;;2.58;1.38;;;;;;;24.72;30.35;100107.97;5073020;28;20090;-67
2022/04/11 10:44:48;;;;;;;3.72;1.60;;;;;;;24.61;29.14;100103.47;5071158;28;20063;-67
2022/04/11 10:47:21;;;;;;;2.95;1.25;;;;;;;24.58;28.30;100104.56;5076617;28;20032;-67
2022/04/11 10:49:49;;;;;;;4.25;1.60;;;;;;;24.68;29.17;100101.94;5091244;28;20125;-67
2022/04/11 10:52:26;;;;;;;2.83;1.25;;;;;;;24.92;28.85;100099.75;5091041;28;20123;-67
2022/04/11 10:54:54;;;;;;;3.97;1.60;;;;;;;24.78;28.64;100100.09;5090731;28;20391;-67
2022/04/11 10:57:40;;;;;;;2.75;1.15;;;;;;;24.93;31.20;100085.13;5091175;28;20107;-67
2022/04/11 11:00:22;;;;;;;3.85;1.02;;;;;;;25.12;29.17;100077.03;5090736;28;20020;-67
2022/04/11 11:02:54;;;;;;;1.90;1.20;;;;;;;25.17;29.62;100084.75;5091007;28;20027;-67
2022/04/11 11:05:23;;;;;;;2.55;1.20;;;;;;;24.85;29.10;100078.66;5090996;28;20027;-67
2022/04/11 11:07:48;;;;;;;2.88;1.15;;;;;;;24.64;29.05;100073.25;5091160;28;20023;-67
2022/04/11 11:10:27;;;;;;;2.25;1.08;;;;;;;25.12;27.36;100071.56;5090817;28;20032;-67
2022/04/11 11:13:28;;;;;;;2.38;0.90;;;;;;;24.01;27.51;100073.50;5090066;28;20034;-67
2022/04/11 11:15:58;;;;;;;2.50;1.10;;;;;;;24.49;30.25;100061.88;5094697;28;20023;-67
2022/04/11 11:18:24;;;;;;;2.03;0.85;;;;;;;25.08;28.23;100056.50;5094043;28;20027;-67
2022/04/11 11:20:54;;;;;;;2.45;0.95;;;;;;;25.37;27.42;100051.97;5094494;28;20048;-67
2022/04/11 11:23:23;;;;;;;2.58;1.02;;;;;;;25.26;25.90;100056.66;5095049;28;20367;-67